Time;durP1;ratioP1;P1;durP2;ratioP2;P2;SDS_P1;SDS_P2;PMS_P1;PMS_P2;Temp;Humidity;BMP_temperature;BMP_pressure;BME280_temperature;BME280_humidity;BME280_pressure;Samples;Min_cycle;Max_cycle;Signal;HPM_P1;HPM_P2
2022/12/24 00:01:15;;;;;;;50.85;13.70;;;;;;;;;;5065933;28;20055;-77
2022/12/24 00:03:41;;;;;;;45.25;14.40;;;;;;;;;;5062026;28;20116;-78
2022/12/24 00:06:07;;;;;;;50.50;13.30;;;;;;;;;;5059074;28;20021;-78
2022/12/24 00:08:34;;;;;;;41.72;13.57;;;;;;;;;;5058802;28;20033;-78
2022/12/24 00:11:00;;;;;;;53.80;14.20;;;;;;;;;;5056635;28;20040;-78
2022/12/24 00:13:26;;;;;;;54.83;15.05;;;;;;;;;;5057524;28;20027;-78
2022/12/24 00:15:52;;;;;;;43.63;14.80;;;;;;;;;;5057794;28;20036;-78
2022/12/24 00:18:17;;;;;;;56.10;15.15;;;;;;;;;;5057746;28;20025;-77
2022/12/24 00:20:47;;;;;;;52.78;14.98;;;;;;;;;;5057833;28;20386;-78
2022/12/24 00:23:13;;;;;;;47.42;15.20;;;;;;;;;;5055662;28;20112;-78
2022/12/24 00:25:39;;;;;;;54.70;15.90;;;;;;;;;;5056990;28;20100;-78
2022/12/24 00:28:05;;;;;;;43.28;15.65;;;;;;;;;;5057491;28;20076;-78
2022/12/24 00:30:31;;;;;;;47.03;14.63;;;;;;;;;;5057857;28;20033;-76
2022/12/24 00:32:57;;;;;;;53.75;15.63;;;;;;;;;;5058785;28;20032;-78
2022/12/24 00:35:23;;;;;;;53.33;16.38;;;;;;;;;;5065466;28;20055;-75
2022/12/24 00:37:50;;;;;;;48.05;16.25;;;;;;;;;;5071878;28;20029;-77
2022/12/24 00:40:16;;;;;;;52.60;17.10;;;;;;;;;;5063771;28;20035;-76
2022/12/24 00:42:42;;;;;;;56.67;17.25;;;;;;;;;;5066255;28;20121;-78
2022/12/24 00:45:08;;;;;;;54.17;16.77;;;;;;;;;;5058076;28;20183;-78
2022/12/24 00:47:34;;;;;;;59.65;17.15;;;;;;;;;;5056686;28;20147;-77
2022/12/24 00:50:01;;;;;;;49.05;16.75;;;;;;;;;;5056813;28;20064;-77
2022/12/24 00:52:27;;;;;;;50.15;15.98;;;;;;;;;;5058930;28;20021;-78
2022/12/24 00:54:53;;;;;;;58.22;18.20;;;;;;;;;;5054207;28;20040;-78
2022/12/24 00:57:19;;;;;;;49.00;17.38;;;;;;;;;;5055632;28;20581;-78
2022/12/24 00:59:45;;;;;;;51.85;16.52;;;;;;;;;;5055268;28;20463;-78
2022/12/24 01:02:11;;;;;;;52.30;17.10;;;;;;;;;;5053948;28;20029;-78
2022/12/24 01:07:21;;;;;;;50.17;17.08;;;;;;;;;;5053519;28;20090;-78
2022/12/24 01:09:47;;;;;;;67.65;17.67;;;;;;;;;;5054678;28;20036;-78
2022/12/24 01:12:13;;;;;;;63.35;17.63;;;;;;;;;;5053758;28;20044;-77
2022/12/24 01:14:39;;;;;;;64.63;17.20;;;;;;;;;;5057145;28;20060;-77
2022/12/24 01:17:05;;;;;;;66.13;18.63;;;;;;;;;;5054157;28;20036;-78
2022/12/24 01:19:31;;;;;;;55.20;16.65;;;;;;;;;;5055339;28;20017;-78
2022/12/24 01:21:57;;;;;;;49.08;15.57;;;;;;;;;;5057533;28;20111;-77
2022/12/24 01:24:23;;;;;;;58.65;17.35;;;;;;;;;;5059383;28;20036;-78
2022/12/24 01:26:49;;;;;;;59.03;17.52;;;;;;;;;;5060781;28;20029;-79
2022/12/24 01:29:15;;;;;;;59.47;19.02;;;;;;;;;;5064367;28;20028;-77
2022/12/24 01:31:41;;;;;;;58.67;17.17;;;;;;;;;;5062602;28;20140;-78
2022/12/24 01:34:07;;;;;;;61.70;18.27;;;;;;;;;;5062195;28;20107;-78
2022/12/24 01:36:33;;;;;;;52.40;16.83;;;;;;;;;;5057325;28;20021;-78
2022/12/24 01:38:59;;;;;;;51.47;16.42;;;;;;;;;;5056026;28;20082;-78
2022/12/24 01:44:26;;;;;;;52.88;16.58;;;;;;;;;;5060933;28;20176;-78
2022/12/24 01:47:01;;;;;;;57.72;18.13;;;;;;;;;;5060706;28;20029;-78
2022/12/24 01:49:27;;;;;;;59.22;17.85;;;;;;;;;;5058475;28;20029;-76
2022/12/24 01:51:55;;;;;;;62.33;18.55;;;;;;;;;;5069075;28;20024;-76
2022/12/24 01:54:28;;;;;;;56.10;17.10;;;;;;;;;;5074017;28;20025;-77
2022/12/24 01:57:03;;;;;;;55.40;18.58;;;;;;;;;;5074771;28;20021;-79
2022/12/24 01:59:29;;;;;;;51.63;17.02;;;;;;;;;;5069121;28;20018;-79
2022/12/24 02:01:55;;;;;;;62.33;19.15;;;;;;;;;;5054757;28;20067;-78
2022/12/24 02:04:35;;;;;;;57.38;18.38;;;;;;;;;;5055267;28;20513;-78
2022/12/24 02:07:01;;;;;;;58.97;17.92;;;;;;;;;;5055950;28;20040;-79
2022/12/24 02:09:28;;;;;;;56.30;17.80;;;;;;;;;;5055209;28;20501;-79
2022/12/24 02:11:54;;;;;;;46.92;17.23;;;;;;;;;;5055485;28;20037;-78
2022/12/24 02:14:20;;;;;;;51.28;17.88;;;;;;;;;;5055086;28;20057;-78
2022/12/24 02:16:56;;;;;;;51.10;16.85;;;;;;;;;;5053199;28;20025;-79
2022/12/24 02:19:32;;;;;;;52.78;17.10;;;;;;;;;;5052811;28;20094;-79
2022/12/24 02:22:12;;;;;;;51.80;16.35;;;;;;;;;;5053851;28;20044;-78
2022/12/24 02:24:44;;;;;;;52.08;16.50;;;;;;;;;;5053917;28;20029;-77
2022/12/24 02:27:11;;;;;;;54.30;17.13;;;;;;;;;;5053302;28;20064;-77
2022/12/24 02:29:49;;;;;;;48.72;17.50;;;;;;;;;;5064729;28;20055;-79
2022/12/24 02:32:20;;;;;;;55.83;18.50;;;;;;;;;;5077688;28;20108;-80
2022/12/24 02:34:53;;;;;;;53.08;16.98;;;;;;;;;;5055559;28;20036;-78
2022/12/24 02:37:22;;;;;;;47.47;16.35;;;;;;;;;;5051543;28;20093;-79
2022/12/24 02:39:52;;;;;;;50.22;17.45;;;;;;;;;;5053262;28;20021;-77
2022/12/24 02:42:21;;;;;;;46.85;16.67;;;;;;;;;;5053193;28;20415;-78
2022/12/24 02:44:55;;;;;;;51.15;16.95;;;;;;;;;;5053533;28;20025;-78
2022/12/24 02:47:24;;;;;;;47.08;17.27;;;;;;;;;;5052783;28;20094;-78
2022/12/24 02:49:50;;;;;;;48.92;16.90;;;;;;;;;;5052690;28;20040;-77
2022/12/24 02:52:33;;;;;;;46.08;15.57;;;;;;;;;;5051236;28;20363;-78
2022/12/24 02:55:01;;;;;;;42.58;15.88;;;;;;;;;;5051369;28;20029;-78
2022/12/24 02:57:32;;;;;;;47.70;17.70;;;;;;;;;;5053120;28;20556;-76
2022/12/24 03:00:07;;;;;;;48.03;16.95;;;;;;;;;;5050888;28;20028;-78
2022/12/24 03:02:52;;;;;;;48.90;16.45;;;;;;;;;;5052596;28;20025;-76
2022/12/24 03:05:26;;;;;;;45.13;17.42;;;;;;;;;;5052716;28;20230;-78
2022/12/24 03:08:01;;;;;;;39.33;16.27;;;;;;;;;;5052795;28;20029;-79
2022/12/24 03:10:41;;;;;;;45.55;16.90;;;;;;;;;;5052717;28;20579;-78
2022/12/24 03:13:09;;;;;;;45.35;16.33;;;;;;;;;;5055171;28;20029;-77
2022/12/24 03:15:37;;;;;;;40.17;15.98;;;;;;;;;;5052416;28;20133;-78
2022/12/24 03:18:05;;;;;;;41.72;16.60;;;;;;;;;;5052065;28;20087;-78
2022/12/24 03:20:39;;;;;;;45.60;16.83;;;;;;;;;;5052740;28;20121;-78
2022/12/24 03:23:05;;;;;;;46.67;16.83;;;;;;;;;;5052612;28;20029;-77
2022/12/24 03:25:32;;;;;;;47.88;16.20;;;;;;;;;;5051834;28;20027;-77
2022/12/24 03:28:00;;;;;;;49.08;17.23;;;;;;;;;;5052228;28;20044;-77
2022/12/24 03:30:26;;;;;;;46.25;17.02;;;;;;;;;;5052988;28;20437;-79
2022/12/24 03:32:52;;;;;;;42.90;16.65;;;;;;;;;;5052643;28;20035;-76
2022/12/24 03:35:18;;;;;;;42.53;16.38;;;;;;;;;;5056811;28;20033;-77
2022/12/24 03:37:44;;;;;;;44.53;17.48;;;;;;;;;;5064321;28;20025;-77
2022/12/24 03:40:10;;;;;;;42.50;16.33;;;;;;;;;;5067936;28;20125;-75
2022/12/24 03:42:36;;;;;;;46.97;17.98;;;;;;;;;;5063693;28;20031;-77
2022/12/24 03:45:02;;;;;;;45.17;16.92;;;;;;;;;;5065971;28;20040;-76
2022/12/24 03:47:28;;;;;;;38.88;16.15;;;;;;;;;;5067528;28;20033;-77
2022/12/24 03:49:54;;;;;;;38.53;16.33;;;;;;;;;;5078080;28;20037;-78
2022/12/24 03:52:20;;;;;;;41.03;15.80;;;;;;;;;;5080376;28;20013;-79
2022/12/24 03:54:46;;;;;;;39.53;15.43;;;;;;;;;;5080275;28;20056;-78
2022/12/24 03:57:12;;;;;;;39.58;15.85;;;;;;;;;;5080178;28;20042;-78
2022/12/24 03:59:38;;;;;;;40.30;16.50;;;;;;;;;;5072623;28;20032;-77
2022/12/24 04:02:04;;;;;;;39.00;15.68;;;;;;;;;;5062417;28;20033;-77
2022/12/24 04:04:32;;;;;;;31.80;14.80;;;;;;;;;;5069543;28;20036;-77
2022/12/24 04:06:58;;;;;;;35.30;14.65;;;;;;;;;;5065019;28;20028;-75
2022/12/24 04:09:24;;;;;;;34.40;14.10;;;;;;;;;;5063630;28;20029;-79
2022/12/24 04:11:49;;;;;;;37.45;15.27;;;;;;;;;;5058272;28;20029;-77
2022/12/24 04:14:15;;;;;;;32.30;14.68;;;;;;;;;;5058939;28;20060;-77
2022/12/24 04:16:41;;;;;;;37.17;15.27;;;;;;;;;;5055946;28;20041;-77
2022/12/24 04:19:07;;;;;;;30.30;13.68;;;;;;;;;;5055992;28;20025;-78
2022/12/24 04:21:33;;;;;;;33.08;14.02;;;;;;;;;;5055991;28;20025;-78
2022/12/24 04:23:59;;;;;;;31.88;13.52;;;;;;;;;;5056224;28;20060;-78
2022/12/24 04:26:25;;;;;;;28.48;13.52;;;;;;;;;;5059016;28;20033;-78
2022/12/24 04:28:51;;;;;;;29.30;13.45;;;;;;;;;;5054658;28;20029;-78
2022/12/24 04:31:17;;;;;;;30.45;13.60;;;;;;;;;;5055647;28;20119;-79
2022/12/24 04:33:43;;;;;;;34.78;13.63;;;;;;;;;;5055533;28;20025;-77
2022/12/24 04:36:11;;;;;;;28.63;13.13;;;;;;;;;;5055080;28;20086;-76
2022/12/24 04:38:37;;;;;;;32.25;13.68;;;;;;;;;;5055027;28;20083;-77
2022/12/24 04:41:08;;;;;;;26.42;13.02;;;;;;;;;;5055514;28;20024;-77
2022/12/24 04:43:34;;;;;;;27.63;12.55;;;;;;;;;;5055090;28;20108;-78
2022/12/24 04:46:07;;;;;;;32.28;13.55;;;;;;;;;;5053185;28;20101;-78
2022/12/24 04:48:33;;;;;;;26.52;12.38;;;;;;;;;;5055043;28;20028;-79
2022/12/24 04:51:02;;;;;;;31.45;13.35;;;;;;;;;;5055734;28;20025;-76
2022/12/24 04:53:28;;;;;;;26.65;12.73;;;;;;;;;;5053900;28;20029;-77
2022/12/24 04:55:54;;;;;;;29.15;13.00;;;;;;;;;;5054688;28;20501;-77
2022/12/24 04:58:20;;;;;;;32.55;14.05;;;;;;;;;;5054772;28;20029;-77
2022/12/24 05:00:46;;;;;;;27.83;12.57;;;;;;;;;;5058198;28;20025;-75
2022/12/24 05:03:12;;;;;;;28.58;13.18;;;;;;;;;;5056241;28;20108;-78
2022/12/24 05:05:38;;;;;;;26.98;12.60;;;;;;;;;;5055970;28;20075;-78
2022/12/24 05:08:05;;;;;;;24.88;12.70;;;;;;;;;;5056767;28;20027;-77
2022/12/24 05:10:31;;;;;;;30.17;13.07;;;;;;;;;;5055251;28;20348;-78
2022/12/24 05:12:56;;;;;;;27.27;12.85;;;;;;;;;;5055952;28;20021;-77
2022/12/24 05:15:22;;;;;;;24.15;12.32;;;;;;;;;;5054250;28;20085;-77
2022/12/24 05:17:48;;;;;;;26.83;11.73;;;;;;;;;;5054785;28;20375;-76
2022/12/24 05:20:15;;;;;;;28.80;12.02;;;;;;;;;;5055079;28;20021;-78
2022/12/24 05:28:11;;;;;;;25.42;11.60;;;;;;;;;;5054497;28;20044;-79
2022/12/24 05:30:37;;;;;;;27.50;11.75;;;;;;;;;;5054330;28;20041;-78
2022/12/24 05:33:03;;;;;;;22.15;11.50;;;;;;;;;;5059127;28;20376;-77
2022/12/24 05:35:29;;;;;;;29.25;13.65;;;;;;;;;;5058749;28;20055;-78
2022/12/24 05:37:57;;;;;;;23.42;11.73;;;;;;;;;;5059872;28;20467;-78
2022/12/24 05:40:23;;;;;;;25.85;12.32;;;;;;;;;;5059428;28;20081;-78
2022/12/24 05:42:50;;;;;;;25.60;12.30;;;;;;;;;;5055252;28;20025;-78
2022/12/24 05:45:16;;;;;;;27.13;12.70;;;;;;;;;;5056281;28;20021;-79
2022/12/24 05:47:41;;;;;;;25.33;13.00;;;;;;;;;;5057669;28;20070;-77
2022/12/24 05:50:08;;;;;;;27.52;12.95;;;;;;;;;;5064685;28;20032;-78
2022/12/24 05:52:34;;;;;;;27.50;12.63;;;;;;;;;;5068162;28;20029;-77
2022/12/24 05:55:00;;;;;;;27.48;12.45;;;;;;;;;;5077193;28;20084;-79
2022/12/24 05:57:26;;;;;;;25.75;12.88;;;;;;;;;;5077282;28;20048;-80
2022/12/24 05:59:51;;;;;;;26.00;12.43;;;;;;;;;;5078361;28;20017;-79
2022/12/24 06:02:17;;;;;;;26.73;13.98;;;;;;;;;;5077820;28;20036;-77
2022/12/24 06:04:43;;;;;;;26.77;12.93;;;;;;;;;;5072697;28;20036;-77
2022/12/24 06:07:09;;;;;;;30.55;12.43;;;;;;;;;;5067150;28;20085;-78
2022/12/24 06:09:35;;;;;;;29.10;14.27;;;;;;;;;;5067398;28;20355;-78
2022/12/24 06:12:01;;;;;;;25.63;12.15;;;;;;;;;;5070327;28;20335;-77
2022/12/24 06:14:27;;;;;;;27.52;13.70;;;;;;;;;;5059921;28;20024;-79
2022/12/24 06:16:53;;;;;;;28.95;14.27;;;;;;;;;;5057831;28;20021;-79
2022/12/24 06:19:19;;;;;;;27.95;13.20;;;;;;;;;;5059739;28;20025;-78
2022/12/24 06:21:45;;;;;;;31.48;14.48;;;;;;;;;;5057729;28;20028;-78
2022/12/24 06:24:11;;;;;;;27.23;12.48;;;;;;;;;;5062525;28;20025;-79
2022/12/24 06:26:37;;;;;;;29.63;14.07;;;;;;;;;;5076660;28;20052;-77
2022/12/24 06:29:03;;;;;;;28.35;13.68;;;;;;;;;;5075452;28;20036;-78
2022/12/24 06:31:29;;;;;;;28.23;13.63;;;;;;;;;;5074350;28;20033;-76
2022/12/24 06:33:55;;;;;;;29.42;13.20;;;;;;;;;;5073856;28;20083;-77
2022/12/24 06:36:23;;;;;;;34.13;15.30;;;;;;;;;;5054817;28;20571;-81
2022/12/24 06:38:50;;;;;;;29.13;13.90;;;;;;;;;;5071318;22;20460;-75
2022/12/24 06:41:16;;;;;;;31.60;14.43;;;;;;;;;;5023309;28;20549;-75
2022/12/24 06:43:44;;;;;;;25.02;12.73;;;;;;;;;;5034138;28;20112;-78
2022/12/24 06:46:10;;;;;;;28.50;14.18;;;;;;;;;;5031561;28;20030;-76
2022/12/24 06:48:36;;;;;;;24.20;12.93;;;;;;;;;;5031962;28;20066;-77
2022/12/24 06:51:02;;;;;;;29.77;13.55;;;;;;;;;;5035297;28;20025;-76
2022/12/24 06:53:28;;;;;;;28.10;13.63;;;;;;;;;;5032999;28;20025;-76
2022/12/24 06:56:00;;;;;;;27.13;13.07;;;;;;;;;;5032573;28;20489;-76
2022/12/24 06:58:26;;;;;;;25.60;13.15;;;;;;;;;;5033032;28;20546;-76
2022/12/24 07:00:52;;;;;;;27.10;12.43;;;;;;;;;;5016195;28;20064;-76
2022/12/24 07:03:18;;;;;;;23.10;12.32;;;;;;;;;;5033322;28;20034;-76
2022/12/24 07:05:44;;;;;;;24.30;11.68;;;;;;;;;;5032455;28;20033;-76
2022/12/24 07:08:10;;;;;;;26.80;11.93;;;;;;;;;;5033090;28;20137;-74
2022/12/24 07:10:36;;;;;;;22.50;11.73;;;;;;;;;;5032618;28;20033;-75
2022/12/24 07:13:02;;;;;;;26.67;11.73;;;;;;;;;;5032948;28;20359;-75
2022/12/24 07:15:28;;;;;;;27.60;11.70;;;;;;;;;;5032532;28;20025;-76
2022/12/24 07:17:54;;;;;;;23.08;10.75;;;;;;;;;;5037687;28;20022;-76
2022/12/24 07:20:20;;;;;;;26.80;12.55;;;;;;;;;;5034981;28;20093;-76
2022/12/24 07:22:45;;;;;;;24.33;11.18;;;;;;;;;;5033401;28;20033;-76
2022/12/24 07:25:11;;;;;;;19.90;10.55;;;;;;;;;;5033712;28;20033;-76
2022/12/24 07:27:38;;;;;;;19.85;10.30;;;;;;;;;;5034568;28;20030;-74
2022/12/24 07:30:04;;;;;;;18.55;9.82;;;;;;;;;;5018982;28;20033;-76
2022/12/24 07:32:30;;;;;;;18.73;10.20;;;;;;;;;;5035316;28;20486;-75
2022/12/24 07:34:56;;;;;;;20.20;9.80;;;;;;;;;;5033585;28;20032;-75
2022/12/24 07:37:22;;;;;;;21.52;9.88;;;;;;;;;;5036301;28;20025;-77
2022/12/24 07:39:48;;;;;;;23.42;11.38;;;;;;;;;;5034559;28;20029;-78
2022/12/24 07:42:14;;;;;;;19.20;9.82;;;;;;;;;;5017786;28;20045;-78
2022/12/24 07:44:40;;;;;;;19.52;10.75;;;;;;;;;;5053796;28;20033;-78
2022/12/24 07:47:06;;;;;;;19.88;10.00;;;;;;;;;;5056905;28;20052;-76
2022/12/24 07:49:33;;;;;;;18.10;9.50;;;;;;;;;;5022561;28;20036;-76
2022/12/24 07:51:59;;;;;;;17.13;9.32;;;;;;;;;;5051935;28;20025;-78
2022/12/24 07:54:25;;;;;;;19.20;9.73;;;;;;;;;;5053322;28;20029;-76
2022/12/24 07:56:51;;;;;;;19.27;9.93;;;;;;;;;;5053206;28;20028;-77
2022/12/24 07:59:17;;;;;;;17.02;8.65;;;;;;;;;;5035782;28;20021;-77
2022/12/24 08:01:44;;;;;;;18.25;9.63;;;;;;;;;;5036535;28;20088;-76
2022/12/24 08:04:10;;;;;;;18.23;9.70;;;;;;;;;;5053424;28;20497;-76
2022/12/24 08:06:36;;;;;;;17.08;9.63;;;;;;;;;;5034655;28;20044;-76
2022/12/24 08:09:02;;;;;;;16.73;9.45;;;;;;;;;;5054258;28;20029;-75
2022/12/24 08:11:28;;;;;;;17.70;9.18;;;;;;;;;;5057962;28;20108;-75
2022/12/24 08:13:54;;;;;;;17.05;9.48;;;;;;;;;;5061989;28;20029;-76
2022/12/24 08:16:20;;;;;;;15.80;9.05;;;;;;;;;;5035760;28;20470;-76
2022/12/24 08:18:46;;;;;;;17.33;8.82;;;;;;;;;;5053241;28;20021;-77
2022/12/24 08:21:12;;;;;;;14.10;7.15;;;;;;;;;;5037873;28;20029;-78
2022/12/24 08:23:38;;;;;;;15.88;8.82;;;;;;;;;;5058115;28;20112;-78
2022/12/24 08:26:06;;;;;;;20.50;10.80;;;;;;;;;;5055923;28;20135;-75
2022/12/24 08:28:32;;;;;;;14.38;8.48;;;;;;;;;;5059023;28;20111;-78
2022/12/24 08:30:58;;;;;;;12.93;8.30;;;;;;;;;;5057115;28;20068;-77
2022/12/24 08:33:24;;;;;;;14.18;8.15;;;;;;;;;;5060111;28;20039;-78
2022/12/24 08:35:51;;;;;;;13.40;7.35;;;;;;;;;;5059889;28;20027;-77
2022/12/24 08:38:17;;;;;;;12.30;7.18;;;;;;;;;;5063220;28;20021;-77
2022/12/24 08:40:46;;;;;;;11.25;7.28;;;;;;;;;;5061918;28;20029;-77
2022/12/24 08:43:11;;;;;;;11.85;7.13;;;;;;;;;;5063347;28;20108;-75
2022/12/24 08:45:38;;;;;;;10.27;6.03;;;;;;;;;;5063209;28;20502;-78
2022/12/24 08:48:04;;;;;;;12.00;7.30;;;;;;;;;;5045743;28;20044;-75
2022/12/24 08:50:30;;;;;;;13.35;6.63;;;;;;;;;;5058394;28;20032;-77
2022/12/24 08:52:56;;;;;;;11.43;6.57;;;;;;;;;;5059136;28;20036;-77
2022/12/24 08:55:22;;;;;;;11.55;7.03;;;;;;;;;;5056371;28;20029;-80
2022/12/24 08:57:48;;;;;;;11.50;7.00;;;;;;;;;;5056747;28;20049;-76
2022/12/24 09:00:14;;;;;;;13.82;7.43;;;;;;;;;;5058239;28;20086;-76
2022/12/24 09:02:40;;;;;;;12.95;7.68;;;;;;;;;;5057152;28;20036;-78
2022/12/24 09:05:07;;;;;;;11.35;7.18;;;;;;;;;;5061806;28;20013;-75
2022/12/24 09:07:33;;;;;;;14.27;7.15;;;;;;;;;;5055136;28;20048;-75
2022/12/24 09:09:58;;;;;;;11.90;7.70;;;;;;;;;;5065656;28;20025;-76
2022/12/24 09:12:25;;;;;;;11.15;7.30;;;;;;;;;;5056379;28;20029;-75
2022/12/24 09:14:51;;;;;;;13.93;7.35;;;;;;;;;;5062165;28;20033;-77
2022/12/24 09:17:17;;;;;;;12.15;7.90;;;;;;;;;;5070348;28;20020;-77
2022/12/24 09:19:43;;;;;;;12.48;7.40;;;;;;;;;;5062185;28;20028;-77
2022/12/24 09:22:09;;;;;;;12.23;7.47;;;;;;;;;;5062021;28;20409;-77
2022/12/24 09:24:35;;;;;;;15.20;8.15;;;;;;;;;;5058258;28;20536;-78
2022/12/24 09:27:02;;;;;;;22.00;10.80;;;;;;;;;;5021925;28;20029;-77
2022/12/24 09:29:28;;;;;;;28.40;12.88;;;;;;;;;;5056082;28;20099;-76
2022/12/24 09:31:55;;;;;;;23.30;11.70;;;;;;;;;;5055321;28;20044;-77
2022/12/24 09:34:21;;;;;;;17.00;9.77;;;;;;;;;;5056074;28;20029;-76
2022/12/24 09:36:47;;;;;;;19.50;9.52;;;;;;;;;;5054569;28;20028;-76
2022/12/24 09:39:13;;;;;;;22.20;12.55;;;;;;;;;;5055543;28;20044;-76
2022/12/24 09:41:45;;;;;;;14.57;9.18;;;;;;;;;;5055271;28;20036;-75
2022/12/24 09:44:30;;;;;;;17.23;9.65;;;;;;;;;;5055773;28;20041;-76
2022/12/24 09:46:56;;;;;;;16.00;9.25;;;;;;;;;;5055046;28;20437;-76
2022/12/24 09:49:32;;;;;;;16.05;9.13;;;;;;;;;;5055897;28;20025;-78
2022/12/24 09:52:09;;;;;;;16.02;9.00;;;;;;;;;;5055745;28;20490;-76
2022/12/24 09:54:38;;;;;;;17.83;8.90;;;;;;;;;;5058980;28;20033;-76
2022/12/24 09:57:06;;;;;;;9.95;7.05;;;;;;;;;;5055593;28;20100;-76
2022/12/24 09:59:40;;;;;;;13.60;8.40;;;;;;;;;;5054856;28;20114;-77
2022/12/24 10:02:10;;;;;;;13.88;7.95;;;;;;;;;;5056560;28;20021;-76
2022/12/24 10:04:36;;;;;;;11.80;7.63;;;;;;;;;;5057133;28;20029;-76
2022/12/24 10:07:08;;;;;;;12.13;7.80;;;;;;;;;;5058970;28;20502;-75
2022/12/24 10:09:47;;;;;;;11.30;8.02;;;;;;;;;;5057444;28;20029;-76
2022/12/24 10:12:19;;;;;;;14.18;8.43;;;;;;;;;;5055148;28;20029;-75
2022/12/24 10:15:01;;;;;;;15.45;9.23;;;;;;;;;;5055847;28;20050;-75
2022/12/24 10:17:39;;;;;;;14.77;8.63;;;;;;;;;;5062095;28;20040;-76
2022/12/24 10:20:22;;;;;;;15.75;9.73;;;;;;;;;;5056059;28;20501;-78
2022/12/24 10:23:06;;;;;;;15.88;8.52;;;;;;;;;;5060137;28;20052;-76
2022/12/24 10:25:51;;;;;;;15.77;8.93;;;;;;;;;;5061488;28;20033;-75
2022/12/24 10:28:27;;;;;;;16.83;10.30;;;;;;;;;;5055925;28;20044;-76
2022/12/24 10:30:57;;;;;;;13.57;9.00;;;;;;;;;;5067160;28;20118;-77
2022/12/24 10:33:43;;;;;;;15.43;9.57;;;;;;;;;;5058405;28;20377;-76
2022/12/24 10:36:12;;;;;;;13.00;8.77;;;;;;;;;;5055381;28;20100;-76
2022/12/24 10:38:38;;;;;;;13.32;8.95;;;;;;;;;;5055956;28;20032;-76
2022/12/24 10:41:04;;;;;;;13.25;8.98;;;;;;;;;;5060457;28;20035;-76
2022/12/24 10:43:30;;;;;;;15.40;8.93;;;;;;;;;;5045574;28;20462;-75
2022/12/24 10:45:59;;;;;;;23.55;12.80;;;;;;;;;;5062763;28;20021;-76
2022/12/24 10:48:29;;;;;;;21.38;13.70;;;;;;;;;;5063363;28;20036;-77
2022/12/24 10:50:59;;;;;;;13.13;8.63;;;;;;;;;;5063453;28;20025;-76
2022/12/24 10:53:36;;;;;;;13.18;8.95;;;;;;;;;;5063912;28;20025;-76
2022/12/24 10:56:07;;;;;;;14.77;10.00;;;;;;;;;;5047601;28;20021;-74
2022/12/24 10:58:34;;;;;;;17.42;12.00;;;;;;;;;;5063565;28;20032;-75
2022/12/24 11:01:00;;;;;;;15.57;9.93;;;;;;;;;;5064124;28;20017;-76
2022/12/24 11:03:33;;;;;;;17.83;11.18;;;;;;;;;;5061561;28;20047;-74
2022/12/24 11:06:00;;;;;;;20.00;11.90;;;;;;;;;;5060539;28;20025;-74
2022/12/24 11:08:27;;;;;;;15.27;10.52;;;;;;;;;;5061369;28;20035;-74
2022/12/24 11:10:54;;;;;;;13.90;10.32;;;;;;;;;;5046856;28;20029;-74
2022/12/24 11:13:35;;;;;;;19.88;12.82;;;;;;;;;;5041109;28;20029;-75
2022/12/24 11:16:16;;;;;;;18.38;11.68;;;;;;;;;;5060863;28;20037;-75
2022/12/24 11:18:48;;;;;;;18.48;11.55;;;;;;;;;;5058974;28;20021;-76
2022/12/24 11:21:19;;;;;;;20.38;11.70;;;;;;;;;;5059599;28;20025;-76
2022/12/24 11:23:54;;;;;;;17.67;11.65;;;;;;;;;;5060355;28;20029;-76
2022/12/24 11:26:24;;;;;;;30.50;17.90;;;;;;;;;;5059288;28;20409;-74
2022/12/24 11:29:16;;;;;;;28.20;16.88;;;;;;;;;;5061081;28;20055;-77
2022/12/24 11:31:44;;;;;;;22.55;14.05;;;;;;;;;;5056733;28;20039;-75
2022/12/24 11:34:18;;;;;;;21.23;13.73;;;;;;;;;;5061903;28;20025;-77
2022/12/24 11:36:44;;;;;;;18.77;12.05;;;;;;;;;;5045707;28;20533;-75
2022/12/24 11:39:19;;;;;;;19.88;14.00;;;;;;;;;;5065728;28;20181;-75
2022/12/24 11:41:45;;;;;;;21.75;13.15;;;;;;;;;;5055940;28;20018;-75
2022/12/24 11:44:11;;;;;;;20.00;13.60;;;;;;;;;;5074712;28;20036;-75
2022/12/24 11:46:38;;;;;;;19.10;12.32;;;;;;;;;;5040166;28;20490;-75
2022/12/24 11:49:06;;;;;;;21.42;12.45;;;;;;;;;;5036859;28;20532;-76
2022/12/24 11:51:32;;;;;;;19.15;12.98;;;;;;;;;;5054039;28;20021;-76
2022/12/24 11:54:01;;;;;;;18.85;12.45;;;;;;;;;;5053573;28;20025;-75
2022/12/24 11:56:33;;;;;;;21.70;14.52;;;;;;;;;;5056137;28;20017;-75
2022/12/24 11:59:21;;;;;;;22.55;14.20;;;;;;;;;;5058063;28;20501;-77
2022/12/24 12:01:49;;;;;;;24.77;14.07;;;;;;;;;;5057695;28;20056;-76
2022/12/24 12:04:19;;;;;;;23.30;14.75;;;;;;;;;;5039517;28;20115;-76
2022/12/24 12:06:48;;;;;;;29.50;18.52;;;;;;;;;;5056471;28;20100;-76
2022/12/24 12:09:26;;;;;;;24.50;15.82;;;;;;;;;;5040112;28;20078;-76
2022/12/24 12:11:54;;;;;;;30.88;15.27;;;;;;;;;;5070156;28;20079;-75
2022/12/24 12:14:22;;;;;;;22.13;14.88;;;;;;;;;;5075540;28;20033;-74
2022/12/24 12:16:59;;;;;;;35.80;20.17;;;;;;;;;;5061316;28;20059;-76
2022/12/24 12:19:27;;;;;;;21.98;14.15;;;;;;;;;;5057235;28;20032;-75
2022/12/24 12:21:53;;;;;;;24.00;13.90;;;;;;;;;;5057163;28;20035;-76
2022/12/24 12:24:22;;;;;;;20.98;14.15;;;;;;;;;;5057389;28;20097;-77
2022/12/24 12:26:48;;;;;;;20.60;14.07;;;;;;;;;;5056747;28;20089;-77
2022/12/24 12:29:26;;;;;;;25.50;13.60;;;;;;;;;;5057393;28;20086;-77
2022/12/24 12:31:56;;;;;;;19.30;12.95;;;;;;;;;;5058243;28;20029;-76
2022/12/24 12:34:34;;;;;;;30.88;13.93;;;;;;;;;;5061078;28;20393;-77
2022/12/24 12:37:04;;;;;;;25.85;13.57;;;;;;;;;;5056987;28;20029;-77
2022/12/24 12:39:31;;;;;;;30.33;13.43;;;;;;;;;;5074592;22;20060;-76
2022/12/24 12:42:06;;;;;;;38.40;15.15;;;;;;;;;;5031958;28;20085;-78
2022/12/24 12:44:36;;;;;;;32.95;14.90;;;;;;;;;;5029344;28;20548;-76
2022/12/24 12:47:22;;;;;;;40.17;14.73;;;;;;;;;;5028970;28;20021;-77
2022/12/24 12:49:57;;;;;;;39.30;15.40;;;;;;;;;;5026875;28;20045;-76
2022/12/24 12:52:23;;;;;;;;;;;;;;;;;;5027691;28;20022;-77
2022/12/24 12:54:59;;;;;;;43.90;17.13;;;;;;;;;;5026558;28;19917;-77
2022/12/24 12:57:28;;;;;;;44.88;16.27;;;;;;;;;;5044471;28;20175;-76
2022/12/24 12:59:54;;;;;;;36.83;16.58;;;;;;;;;;5025928;28;20025;-77
2022/12/24 13:02:32;;;;;;;50.10;18.13;;;;;;;;;;5042820;28;20506;-76
2022/12/24 13:04:58;;;;;;;39.15;17.52;;;;;;;;;;5042952;28;20032;-78
2022/12/24 13:07:27;;;;;;;43.10;17.08;;;;;;;;;;5043502;28;20382;-78
2022/12/24 13:10:12;;;;;;;47.00;16.98;;;;;;;;;;5043675;28;20033;-77
2022/12/24 13:12:44;;;;;;;44.50;17.35;;;;;;;;;;5051827;28;20009;-77
2022/12/24 13:15:13;;;;;;;45.10;16.88;;;;;;;;;;5057385;28;20038;-74
2022/12/24 13:17:46;;;;;;;36.67;16.00;;;;;;;;;;5047741;28;20040;-79
2022/12/24 13:20:28;;;;;;;39.00;16.90;;;;;;;;;;5042149;28;20033;-79
2022/12/24 13:22:57;;;;;;;46.15;16.90;;;;;;;;;;5047856;28;20021;-79
2022/12/24 13:25:26;;;;;;;38.67;17.20;;;;;;;;;;5028977;28;20025;-79
2022/12/24 13:27:54;;;;;;;43.88;16.95;;;;;;;;;;5037417;28;20009;-77
2022/12/24 13:30:39;;;;;;;34.97;16.23;;;;;;;;;;5033950;28;20018;-78
2022/12/24 13:33:05;;;;;;;;;;;;;;;;;;5022081;28;20580;-75
2022/12/24 13:35:32;;;;;;;41.85;15.65;;;;;;;;;;5036985;28;20003;-75
2022/12/24 13:38:17;;;;;;;41.13;15.88;;;;;;;;;;5034353;28;20041;-77
2022/12/24 13:40:43;;;;;;;37.05;15.18;;;;;;;;;;5054758;28;20074;-75
2022/12/24 13:43:11;;;;;;;30.90;13.73;;;;;;;;;;5055304;28;20033;-74
2022/12/24 13:45:37;;;;;;;37.30;15.13;;;;;;;;;;5053672;28;20036;-74
2022/12/24 13:48:03;;;;;;;37.40;14.77;;;;;;;;;;5049097;28;20418;-73
2022/12/24 13:50:35;;;;;;;41.55;14.85;;;;;;;;;;5039482;28;20032;-75
2022/12/24 13:53:01;;;;;;;41.65;13.65;;;;;;;;;;5040191;28;20097;-76
2022/12/24 13:55:28;;;;;;;43.63;13.65;;;;;;;;;;5040091;28;20021;-80
2022/12/24 13:57:58;;;;;;;45.55;13.23;;;;;;;;;;5040240;28;20026;-78
2022/12/24 14:00:30;;;;;;;45.08;13.65;;;;;;;;;;5038907;28;20057;-78
2022/12/24 14:02:59;;;;;;;53.50;14.88;;;;;;;;;;5038085;28;20529;-78
2022/12/24 14:05:39;;;;;;;54.50;14.02;;;;;;;;;;5040214;28;20025;-77
2022/12/24 14:08:07;;;;;;;42.55;14.30;;;;;;;;;;5040842;28;20022;-78
2022/12/24 14:10:40;;;;;;;50.92;14.05;;;;;;;;;;5038132;28;20033;-77
2022/12/24 14:13:26;;;;;;;39.22;13.55;;;;;;;;;;5039287;28;20041;-78
2022/12/24 14:15:55;;;;;;;52.03;13.65;;;;;;;;;;5040351;28;20057;-78
2022/12/24 14:18:22;;;;;;;46.15;13.18;;;;;;;;;;5037984;28;20028;-78
2022/12/24 14:20:50;;;;;;;51.95;15.45;;;;;;;;;;5022124;28;20033;-78
2022/12/24 14:23:23;;;;;;;42.55;11.07;;;;;;;;;;5040064;28;20025;-79
2022/12/24 14:25:49;;;;;;;51.33;11.45;;;;;;;;;;5053931;28;20033;-77
2022/12/24 14:28:17;;;;;;;52.25;11.55;;;;;;;;;;5030681;28;20039;-77
2022/12/24 14:30:43;;;;;;;48.55;11.48;;;;;;;;;;5031499;28;20022;-78
2022/12/24 14:33:29;;;;;;;41.42;10.93;;;;;;;;;;5034825;28;20033;-77
2022/12/24 14:35:55;;;;;;;51.13;13.80;;;;;;;;;;5032033;28;20033;-78
2022/12/24 14:38:21;;;;;;;57.47;12.80;;;;;;;;;;5045376;28;20030;-78
2022/12/24 14:41:06;;;;;;;56.40;13.60;;;;;;;;;;5041816;28;20474;-77